Terminal Aerodrome Forecast
Issued by NWS Cleveland, OH

Home | Current Version | Previous Version | Text Only | Print | Product List | Glossary On
Versions: 1 2 3 4 5 6 7 8 9 10 11 12 13 14 15
000
FTUS41 KCLE 281100
TAFCAK
TAF
KCAK 281120Z 2812/0112 17003KT P6SM BKN200
     FM281900 14005KT P6SM OVC100
     FM010000 09005KT P6SM SCT025 OVC040
     FM010600 13005KT 2SM -SN SCT012 OVC020
     FM011000 13005KT 3/4SM -SN BR OVC008=

USA.gov is the U.S. government's official web portal to all federal, state and local government web resources and services.